Time;durP1;ratioP1;P1;durP2;ratioP2;P2;SDS_P1;SDS_P2;PMS_P1;PMS_P2;Temp;Humidity;BMP_temperature;BMP_pressure;BME280_temperature;BME280_humidity;BME280_pressure;Samples;Min_cycle;Max_cycle;Signal;HPM_P1;HPM_P2
2022/05/11 00:01:11;;;;;;;0.88;0.30;;;;;;;17.63;31.25;102040.09;5016010;28;20065;-49
2022/05/11 00:03:38;;;;;;;8.13;0.90;;;;;;;17.36;33.11;102039.50;5014571;28;20053;-49
2022/05/11 00:06:05;;;;;;;2.42;0.30;;;;;;;17.46;33.80;102039.00;5018884;28;20026;-48
2022/05/11 00:08:31;;;;;;;1.77;0.50;;;;;;;17.25;33.86;102037.53;5014699;28;20127;-48
2022/05/11 00:10:57;;;;;;;1.40;0.38;;;;;;;17.16;34.59;102036.16;5014583;28;20029;-46
2022/05/11 00:13:23;;;;;;;2.30;0.22;;;;;;;17.01;33.11;102041.06;5024523;28;20026;-50
2022/05/11 00:15:50;;;;;;;0.57;0.35;;;;;;;16.71;33.20;102041.69;5016532;28;20062;-46
2022/05/11 00:18:16;;;;;;;2.25;0.40;;;;;;;16.79;32.54;102049.50;5014070;28;20044;-48
2022/05/11 00:20:42;;;;;;;1.50;0.30;;;;;;;16.78;32.23;102047.03;5014259;28;20030;-47
2022/05/11 00:23:08;;;;;;;0.30;0.20;;;;;;;16.76;31.07;102054.53;5014426;28;20034;-46
2022/05/11 00:25:35;;;;;;;0.75;0.30;;;;;;;16.55;32.17;102053.78;5015002;28;20057;-48
2022/05/11 00:28:01;;;;;;;5.85;0.40;;;;;;;16.46;33.24;102048.84;5014577;28;20061;-48
2022/05/11 00:30:29;;;;;;;0.93;0.25;;;;;;;16.13;33.74;102054.38;5014244;28;20053;-48
2022/05/11 00:32:57;;;;;;;1.65;0.35;;;;;;;16.30;34.81;102058.28;5012971;28;20030;-47
2022/05/11 00:35:24;;;;;;;1.10;0.20;;;;;;;16.46;34.17;102057.78;5013987;28;20501;-48
2022/05/11 00:37:51;;;;;;;0.93;0.30;;;;;;;16.36;32.94;102060.09;5013909;28;20069;-49
2022/05/11 00:40:19;;;;;;;2.15;0.40;;;;;;;16.24;34.41;102067.22;5005899;28;20042;-45
2022/05/11 00:42:45;;;;;;;1.88;0.70;;;;;;;16.07;34.59;102062.31;4994416;28;20026;-49
2022/05/11 00:45:12;;;;;;;1.10;0.30;;;;;;;15.82;34.35;102053.22;4996631;28;20427;-47
2022/05/11 00:47:44;;;;;;;1.98;0.30;;;;;;;15.78;33.41;102057.41;4996108;28;20034;-49
2022/05/11 00:50:34;;;;;;;1.80;0.30;;;;;;;15.65;34.83;102052.00;5025728;28;20025;-48
2022/05/11 00:53:12;;;;;;;1.55;0.35;;;;;;;15.89;36.30;102048.66;5001481;28;20039;-46
2022/05/11 00:55:43;;;;;;;1.00;0.28;;;;;;;15.81;35.35;102051.56;5007014;28;20494;-48
2022/05/11 00:58:19;;;;;;;0.98;0.22;;;;;;;15.59;36.13;102057.16;5013743;28;20037;-48
2022/05/11 01:00:46;;;;;;;1.15;0.25;;;;;;;15.65;36.96;102044.72;5013549;28;20046;-49
2022/05/11 01:03:18;;;;;;;1.30;0.20;;;;;;;15.45;36.26;102058.25;5016589;28;20104;-45
2022/05/11 01:05:46;;;;;;;2.92;0.40;;;;;;;15.19;37.05;102058.22;5004105;28;20054;-49
2022/05/11 01:08:14;;;;;;;1.38;0.30;;;;;;;15.21;36.20;102056.16;5018152;28;20030;-47
2022/05/11 01:10:42;;;;;;;1.52;0.30;;;;;;;14.99;37.34;102048.28;5020960;28;20144;-46
2022/05/11 01:13:11;;;;;;;1.65;0.30;;;;;;;14.94;37.72;102050.75;5008244;28;20023;-49
2022/05/11 01:15:38;;;;;;;0.60;0.40;;;;;;;15.16;37.40;102056.78;5023670;28;20096;-49
2022/05/11 01:18:07;;;;;;;0.30;0.10;;;;;;;15.32;36.44;102058.22;5013047;28;20072;-46
2022/05/11 01:20:38;;;;;;;0.57;0.22;;;;;;;15.27;35.64;102056.19;5020372;28;20026;-49
2022/05/11 01:23:11;;;;;;;1.38;0.25;;;;;;;15.33;36.38;102065.31;5011364;28;20240;-46
2022/05/11 01:25:37;;;;;;;0.52;0.20;;;;;;;15.48;35.91;102057.81;5017458;28;20026;-45
2022/05/11 01:28:11;;;;;;;1.52;0.50;;;;;;;15.33;36.35;102062.59;5018887;28;20021;-48
2022/05/11 01:30:39;;;;;;;0.63;0.30;;;;;;;15.11;36.79;102061.97;5012486;28;20026;-48
2022/05/11 01:33:07;;;;;;;1.13;0.47;;;;;;;15.09;37.92;102063.19;5012796;28;20301;-48
2022/05/11 01:36:04;;;;;;;0.68;0.32;;;;;;;14.97;37.93;102062.97;5005903;28;20352;-50
2022/05/11 01:38:42;;;;;;;0.43;0.20;;;;;;;15.05;37.95;102069.03;4999000;28;20038;-49
2022/05/11 01:41:12;;;;;;;0.93;0.20;;;;;;;15.24;36.53;102070.06;5011772;28;20030;-49
2022/05/11 01:43:40;;;;;;;0.95;0.40;;;;;;;15.29;36.93;102072.97;5013180;28;20025;-47
2022/05/11 01:46:08;;;;;;;1.25;0.40;;;;;;;15.34;37.06;102069.66;5012691;28;20044;-49
2022/05/11 01:48:35;;;;;;;2.38;0.60;;;;;;;15.25;36.71;102073.59;5014519;28;20025;-49
2022/05/11 01:51:01;;;;;;;1.50;0.30;;;;;;;14.96;36.23;102078.31;5022046;28;20026;-48
2022/05/11 01:53:28;;;;;;;1.50;0.20;;;;;;;14.84;37.47;102074.56;5019909;28;20145;-45
2022/05/11 01:55:55;;;;;;;0.65;0.30;;;;;;;15.00;38.11;102076.06;5026745;28;20060;-46
2022/05/11 01:58:22;;;;;;;0.55;0.32;;;;;;;14.90;38.47;102081.84;5012660;28;20034;-46
2022/05/11 02:00:48;;;;;;;0.75;0.30;;;;;;;14.96;38.58;102088.28;5024336;28;20026;-48
2022/05/11 02:03:18;;;;;;;1.77;0.60;;;;;;;14.75;38.63;102094.66;5031973;28;20033;-49
2022/05/11 02:08:31;;;;;;;1.67;0.38;;;;;;;13.98;38.57;102103.81;4992976;28;20085;-47
2022/05/11 02:10:57;;;;;;;0.30;0.30;;;;;;;13.93;39.15;102103.56;4997099;28;20070;-47
2022/05/11 02:13:23;;;;;;;2.22;0.60;;;;;;;13.93;40.06;102106.25;5003787;28;20030;-45
2022/05/11 02:15:50;;;;;;;3.60;0.75;;;;;;;13.80;39.62;102116.94;5004862;28;20030;-47
2022/05/11 02:18:17;;;;;;;2.28;0.35;;;;;;;14.03;39.84;102117.50;5023333;28;20064;-45
2022/05/11 02:20:43;;;;;;;5.85;0.50;;;;;;;14.19;40.09;102113.66;5022250;28;20026;-45
2022/05/11 02:23:19;;;;;;;1.05;0.40;;;;;;;14.43;39.80;102123.94;5011342;28;20120;-49
2022/05/11 02:25:47;;;;;;;2.75;0.20;;;;;;;14.25;40.04;102126.34;5011941;28;20581;-46
2022/05/11 02:28:15;;;;;;;1.40;0.38;;;;;;;14.31;40.52;102130.09;5013813;28;20482;-48
2022/05/11 02:30:43;;;;;;;1.23;0.30;;;;;;;14.03;40.77;102124.75;5008881;28;20030;-48
2022/05/11 02:33:10;;;;;;;1.67;0.50;;;;;;;14.13;40.63;102130.63;5009027;28;20061;-45
2022/05/11 02:35:37;;;;;;;0.70;0.50;;;;;;;14.12;41.45;102121.72;5009841;28;20026;-46
2022/05/11 02:38:08;;;;;;;1.08;0.30;;;;;;;13.80;42.51;102123.16;5011571;28;20064;-48
2022/05/11 02:40:39;;;;;;;1.92;0.40;;;;;;;13.41;43.92;102124.50;5009470;28;20049;-47
2022/05/11 02:43:06;;;;;;;2.03;0.40;;;;;;;13.27;44.36;102120.03;5011798;28;20029;-47
2022/05/11 02:45:35;;;;;;;4.97;0.50;;;;;;;13.03;44.40;102123.88;5011694;28;20026;-44
2022/05/11 02:48:02;;;;;;;1.20;0.40;;;;;;;13.08;44.42;102116.06;5012005;28;20061;-47
2022/05/11 02:50:37;;;;;;;2.35;0.60;;;;;;;12.88;44.88;102113.19;5005759;28;20058;-45
2022/05/11 02:53:07;;;;;;;1.15;0.50;;;;;;;12.66;45.91;102119.56;5009198;28;20038;-47
2022/05/11 02:55:46;;;;;;;2.13;0.50;;;;;;;12.52;46.46;102123.91;4994030;28;20503;-47
2022/05/11 02:58:17;;;;;;;1.98;0.73;;;;;;;12.59;46.79;102115.94;4999661;28;20030;-45
2022/05/11 03:00:47;;;;;;;0.52;0.30;;;;;;;12.60;47.01;102114.91;5009932;28;20025;-48
2022/05/11 03:03:15;;;;;;;1.10;0.47;;;;;;;12.62;47.34;102115.56;5002792;28;20026;-49
2022/05/11 03:05:42;;;;;;;2.83;0.60;;;;;;;12.42;47.96;102121.50;5011668;28;20021;-49
2022/05/11 03:08:09;;;;;;;1.77;0.47;;;;;;;12.60;47.94;102112.22;5009566;28;20022;-45
2022/05/11 03:10:37;;;;;;;2.38;0.30;;;;;;;12.60;48.06;102114.91;5002009;28;20421;-47
2022/05/11 03:13:04;;;;;;;1.05;0.50;;;;;;;12.81;48.11;102114.97;5004523;28;20026;-48
2022/05/11 03:15:31;;;;;;;1.20;0.70;;;;;;;12.49;49.38;102104.66;5003135;28;20490;-48
2022/05/11 03:17:58;;;;;;;4.28;0.75;;;;;;;12.60;49.29;102106.84;5008069;28;20803;-48
2022/05/11 03:20:26;;;;;;;4.60;0.50;;;;;;;12.47;49.51;102098.66;5010837;28;20061;-47
2022/05/11 03:22:54;;;;;;;1.90;0.45;;;;;;;12.52;46.90;102109.66;5010545;28;20029;-45
2022/05/11 03:25:22;;;;;;;2.47;0.50;;;;;;;12.27;45.43;102112.66;5010936;28;20038;-48
2022/05/11 03:27:49;;;;;;;0.35;0.28;;;;;;;11.97;45.80;102100.25;5003021;28;20110;-45
2022/05/11 03:30:15;;;;;;;1.27;0.30;;;;;;;12.08;45.68;102099.78;5006330;28;20049;-48
2022/05/11 03:35:26;;;;;;;0.47;0.20;;;;;;;12.00;46.13;102100.72;5013202;28;20037;-45
2022/05/11 03:37:52;;;;;;;1.02;0.30;;;;;;;12.12;46.21;102096.56;5014874;28;20056;-45
2022/05/11 03:40:18;;;;;;;0.80;0.30;;;;;;;11.82;46.64;102087.63;5013235;28;20453;-48
2022/05/11 03:42:45;;;;;;;1.63;0.28;;;;;;;11.97;46.30;102089.50;5013459;28;20137;-45
2022/05/11 03:45:14;;;;;;;0.40;0.20;;;;;;;11.64;46.80;102084.44;5015058;28;20037;-44
2022/05/11 03:47:40;;;;;;;1.20;0.40;;;;;;;11.76;46.75;102090.19;5013993;28;20022;-48
2022/05/11 03:50:08;;;;;;;0.30;0.20;;;;;;;11.73;47.19;102090.59;5013709;28;20084;-45
2022/05/11 03:52:35;;;;;;;1.13;0.30;;;;;;;11.80;47.34;102088.81;5013803;28;20057;-45
2022/05/11 03:55:03;;;;;;;0.55;0.35;;;;;;;11.99;47.43;102085.63;5013167;28;20065;-46
2022/05/11 03:57:32;;;;;;;1.00;0.30;;;;;;;12.19;46.86;102085.06;5014772;28;20029;-46
2022/05/11 03:59:58;;;;;;;0.77;0.43;;;;;;;12.14;46.75;102088.31;5012051;28;20060;-46
2022/05/11 04:02:24;;;;;;;1.50;0.50;;;;;;;12.23;46.25;102092.56;5012875;28;20092;-48
2022/05/11 04:04:50;;;;;;;1.20;0.30;;;;;;;12.26;45.96;102096.72;5014251;28;20034;-47
2022/05/11 04:07:16;;;;;;;0.40;0.40;;;;;;;12.31;45.27;102099.69;5012527;28;20103;-46
2022/05/11 04:09:43;;;;;;;1.48;0.50;;;;;;;12.42;45.56;102091.97;5012411;28;20486;-45
2022/05/11 04:12:10;;;;;;;0.35;0.28;;;;;;;12.33;45.90;102101.19;5012911;28;20458;-48
2022/05/11 04:14:36;;;;;;;0.32;0.20;;;;;;;12.28;46.00;102100.91;5012670;28;20558;-48
2022/05/11 04:17:02;;;;;;;1.10;0.45;;;;;;;12.20;46.36;102109.03;5012059;28;20470;-45
2022/05/11 04:19:30;;;;;;;2.08;0.47;;;;;;;12.18;46.37;102118.31;5012688;28;20029;-47
2022/05/11 04:21:56;;;;;;;0.70;0.20;;;;;;;12.23;46.13;102122.09;5013226;28;20032;-45
2022/05/11 04:24:22;;;;;;;0.77;0.20;;;;;;;12.15;46.53;102132.91;5013198;28;20030;-47
2022/05/11 04:26:49;;;;;;;2.58;0.40;;;;;;;12.29;47.76;102133.94;5012075;28;20030;-45
2022/05/11 04:29:16;;;;;;;1.23;0.47;;;;;;;12.07;49.04;102135.69;5011512;28;20037;-46
2022/05/11 04:31:43;;;;;;;1.98;0.50;;;;;;;12.11;50.04;102128.94;4997497;28;20030;-47
2022/05/11 04:34:11;;;;;;;2.42;0.63;;;;;;;11.82;51.71;102129.72;5005229;28;20084;-45
2022/05/11 04:36:39;;;;;;;2.13;0.47;;;;;;;11.61;51.70;102114.34;5009075;28;20025;-46
2022/05/11 04:39:06;;;;;;;1.65;0.50;;;;;;;11.55;52.58;102133.84;5008331;28;20077;-48
2022/05/11 04:41:33;;;;;;;1.75;0.45;;;;;;;11.55;52.48;102137.34;5028140;28;20092;-46
2022/05/11 04:43:59;;;;;;;2.88;0.60;;;;;;;11.59;52.46;102137.78;5028170;28;20025;-47
2022/05/11 04:46:26;;;;;;;1.55;0.60;;;;;;;11.45;53.06;102146.66;5027217;28;20117;-45
2022/05/11 04:49:16;;;;;;;2.63;0.60;;;;;;;11.19;53.76;102152.34;5030700;28;20029;-46
2022/05/11 04:51:38;;;;;;;4.38;0.85;;;;;;;11.04;54.25;102155.78;5032532;28;20375;-48
2022/05/11 04:54:04;;;;;;;2.45;0.50;;;;;;;11.01;54.29;102156.16;5031982;28;20031;-45
2022/05/11 04:56:34;;;;;;;1.50;0.60;;;;;;;11.15;53.35;102157.22;5008864;28;20109;-48
2022/05/11 04:59:00;;;;;;;2.95;0.80;;;;;;;11.09;54.11;102152.56;5029371;28;20049;-47
2022/05/11 05:01:26;;;;;;;1.45;0.50;;;;;;;11.00;54.58;102162.53;5033912;28;20033;-49
2022/05/11 05:03:53;;;;;;;3.75;0.60;;;;;;;11.03;54.45;102150.59;5023574;28;20033;-49
2022/05/11 05:06:19;;;;;;;2.33;0.50;;;;;;;11.10;53.70;102151.56;5014053;28;20033;-48
2022/05/11 05:08:45;;;;;;;3.50;0.80;;;;;;;11.18;53.96;102143.47;5013652;28;20057;-48
2022/05/11 05:11:12;;;;;;;3.10;0.70;;;;;;;11.15;53.89;102151.03;5014632;28;20033;-47
2022/05/11 05:13:39;;;;;;;2.92;0.65;;;;;;;11.31;52.88;102148.25;5012535;28;20030;-48
2022/05/11 05:16:05;;;;;;;3.30;0.60;;;;;;;11.16;53.94;102153.56;5013684;28;20129;-46
2022/05/11 05:18:32;;;;;;;3.47;0.73;;;;;;;11.13;54.09;102153.06;5011660;28;20137;-45
2022/05/11 05:20:58;;;;;;;2.17;0.90;;;;;;;11.21;54.21;102161.88;5013580;28;20029;-45
2022/05/11 05:23:25;;;;;;;3.50;0.80;;;;;;;11.33;53.89;102155.09;5012345;28;20025;-46
2022/05/11 05:25:51;;;;;;;2.20;0.77;;;;;;;11.36;53.62;102159.25;5011176;28;20028;-46
2022/05/11 05:31:09;;;;;;;2.45;0.70;;;;;;;11.21;54.31;102155.69;5012693;28;20083;-45
2022/05/11 05:33:39;;;;;;;2.30;0.80;;;;;;;11.24;54.86;102161.53;5012668;28;20463;-49
2022/05/11 05:36:05;;;;;;;6.78;0.85;;;;;;;11.15;54.85;102159.06;5005148;28;20410;-46
2022/05/11 05:38:32;;;;;;;1.98;0.77;;;;;;;11.13;55.53;102159.25;5000726;28;20084;-44
2022/05/11 05:40:58;;;;;;;2.40;0.70;;;;;;;11.22;54.75;102162.72;5011536;28;20050;-46
2022/05/11 05:43:25;;;;;;;3.55;0.73;;;;;;;11.09;55.88;102156.09;5012893;28;20021;-45
2022/05/11 05:45:53;;;;;;;2.67;0.80;;;;;;;11.12;55.63;102157.59;5011954;28;20037;-45
2022/05/11 05:48:21;;;;;;;4.38;0.82;;;;;;;11.24;56.06;102160.69;5012729;28;20113;-46
2022/05/11 05:50:47;;;;;;;5.82;1.10;;;;;;;11.14;56.13;102154.72;5010864;28;20033;-45
2022/05/11 05:53:14;;;;;;;6.65;1.02;;;;;;;11.20;56.48;102160.22;5011762;28;20033;-44
2022/05/11 05:55:41;;;;;;;3.03;0.60;;;;;;;10.94;57.05;102159.69;5007492;28;20054;-45
2022/05/11 05:58:07;;;;;;;3.10;0.75;;;;;;;10.87;56.92;102156.88;5012477;28;20490;-47
2022/05/11 06:00:34;;;;;;;3.53;0.70;;;;;;;11.00;57.32;102156.34;5011611;28;20030;-46
2022/05/11 06:03:00;;;;;;;3.38;0.70;;;;;;;10.76;57.52;102162.63;5012945;28;20021;-45
2022/05/11 06:05:28;;;;;;;2.85;0.65;;;;;;;10.78;57.91;102156.13;5011940;28;20029;-46
2022/05/11 06:07:56;;;;;;;4.78;0.80;;;;;;;10.88;58.13;102155.88;5012665;28;20022;-45
2022/05/11 06:10:24;;;;;;;1.60;0.73;;;;;;;10.95;57.78;102161.38;5011240;28;20601;-47
2022/05/11 06:12:51;;;;;;;4.38;0.68;;;;;;;10.77;57.92;102153.59;5012455;28;20044;-45
2022/05/11 06:15:17;;;;;;;2.58;0.90;;;;;;;10.67;57.82;102151.16;5011593;28;20083;-45
2022/05/11 06:17:44;;;;;;;1.92;0.80;;;;;;;10.64;58.04;102151.47;5012625;28;20025;-46
2022/05/11 06:20:11;;;;;;;3.33;0.80;;;;;;;10.68;57.76;102144.78;5010993;28;20030;-46
2022/05/11 06:22:37;;;;;;;1.75;0.80;;;;;;;10.61;58.05;102140.31;5012727;28;20471;-45
2022/05/11 06:25:05;;;;;;;1.90;0.88;;;;;;;10.41;58.27;102153.25;5011015;28;20026;-45
2022/05/11 06:27:31;;;;;;;2.72;1.10;;;;;;;10.19;57.97;102147.59;5012186;28;20084;-47
2022/05/11 06:30:00;;;;;;;3.55;0.93;;;;;;;10.32;57.07;102144.41;5009452;28;20160;-45
2022/05/11 06:32:27;;;;;;;4.57;1.20;;;;;;;9.54;59.39;102145.00;4992219;28;20045;-44
2022/05/11 06:34:54;;;;;;;3.58;1.23;;;;;;;9.64;58.96;102151.03;5010046;28;20087;-46
2022/05/11 06:37:23;;;;;;;5.70;2.55;;;;;;;9.40;59.42;102149.19;5011970;28;20101;-48
2022/05/11 06:39:50;;;;;;;6.90;2.67;;;;;;;9.33;59.32;102145.53;5010582;28;20050;-46
2022/05/11 06:42:17;;;;;;;6.07;2.20;;;;;;;8.89;61.03;102150.28;5011899;28;20387;-45
2022/05/11 06:44:43;;;;;;;4.15;1.50;;;;;;;9.12;60.16;102148.66;5010975;28;20508;-47
2022/05/11 06:47:09;;;;;;;4.70;1.08;;;;;;;9.27;59.42;102154.19;5011779;28;20383;-48
2022/05/11 06:49:35;;;;;;;3.30;1.15;;;;;;;8.84;60.89;102155.28;5010351;28;20160;-45
2022/05/11 06:52:03;;;;;;;3.60;0.88;;;;;;;8.96;60.45;102146.78;5010977;28;20087;-47
2022/05/11 06:59:58;;;;;;;3.45;0.90;;;;;;;8.02;63.63;102151.34;4993341;28;20041;-47
2022/05/11 07:02:25;;;;;;;4.65;1.30;;;;;;;7.81;64.70;102151.72;5010881;28;20496;-45
2022/05/11 07:04:52;;;;;;;2.47;0.82;;;;;;;8.33;62.67;102138.34;5010445;28;20084;-47
2022/05/11 07:07:18;;;;;;;1.13;0.60;;;;;;;8.59;61.69;102138.31;5011992;28;20092;-45
2022/05/11 07:09:45;;;;;;;2.10;0.93;;;;;;;8.55;61.99;102131.63;5014972;28;20026;-48
2022/05/11 07:12:17;;;;;;;1.23;0.65;;;;;;;8.78;61.00;102137.25;5015145;28;20117;-46
2022/05/11 07:14:44;;;;;;;2.20;1.27;;;;;;;8.65;61.19;102127.84;5016108;28;20089;-45
2022/05/11 07:17:11;;;;;;;2.92;0.75;;;;;;;8.87;60.38;102141.59;5014710;28;20041;-45
2022/05/11 07:19:42;;;;;;;2.80;1.10;;;;;;;8.99;59.80;102140.28;5013800;28;20565;-44
2022/05/11 07:22:09;;;;;;;3.42;0.80;;;;;;;9.01;59.76;102132.97;5015550;28;20363;-46
2022/05/11 07:24:35;;;;;;;1.15;1.05;;;;;;;9.08;59.58;102138.47;5014710;28;20508;-47
2022/05/11 07:27:01;;;;;;;3.58;1.55;;;;;;;9.28;59.07;102139.00;5015580;28;20482;-48
2022/05/11 07:29:28;;;;;;;3.22;1.50;;;;;;;9.15;59.26;102134.13;5014327;28;20445;-48
2022/05/11 07:31:54;;;;;;;3.97;1.20;;;;;;;9.10;59.50;102131.94;4997635;28;20022;-46
2022/05/11 07:34:21;;;;;;;3.47;1.10;;;;;;;9.14;58.99;102135.97;4994932;28;20034;-48
2022/05/11 07:36:48;;;;;;;3.47;1.50;;;;;;;9.03;59.53;102130.13;5015411;28;20030;-48
2022/05/11 07:39:15;;;;;;;4.05;1.38;;;;;;;9.11;59.31;102125.63;5014904;28;20076;-48
2022/05/11 07:41:41;;;;;;;3.50;1.40;;;;;;;8.98;59.38;102120.75;5013952;28;20034;-48
2022/05/11 07:44:08;;;;;;;3.08;1.30;;;;;;;9.04;59.21;102134.44;5015339;28;20022;-48
2022/05/11 07:46:34;;;;;;;5.63;1.80;;;;;;;9.25;58.77;102130.31;5013893;28;20041;-48
2022/05/11 07:49:05;;;;;;;2.80;1.08;;;;;;;9.28;58.42;102125.66;5014961;28;20025;-47
2022/05/11 07:51:32;;;;;;;6.38;1.40;;;;;;;9.18;58.54;102123.97;5013579;28;20029;-48
2022/05/11 07:53:58;;;;;;;2.83;1.30;;;;;;;9.04;58.53;102129.94;5013983;28;20113;-48
2022/05/11 08:01:54;;;;;;;2.60;0.70;;;;;;;8.28;61.60;102136.19;5013547;28;20154;-46
2022/05/11 08:04:20;;;;;;;1.90;1.00;;;;;;;8.33;61.38;102149.00;5014781;28;20076;-47
2022/05/11 08:06:46;;;;;;;1.58;0.68;;;;;;;8.23;61.72;102140.31;5013670;28;20030;-46
2022/05/11 08:09:13;;;;;;;1.80;0.73;;;;;;;8.01;62.40;102145.19;5013883;28;20112;-46
2022/05/11 08:11:39;;;;;;;3.90;0.63;;;;;;;7.92;62.91;102140.78;5014505;28;20030;-46
2022/05/11 08:14:06;;;;;;;1.65;0.68;;;;;;;8.22;61.70;102150.16;5013881;28;20030;-45
2022/05/11 08:16:33;;;;;;;2.63;0.80;;;;;;;8.29;61.54;102143.19;5014143;28;20033;-47
2022/05/11 08:18:59;;;;;;;2.63;0.60;;;;;;;8.38;60.85;102128.06;5013899;28;20164;-48
2022/05/11 08:21:26;;;;;;;1.75;0.70;;;;;;;8.45;60.51;102134.44;5013294;28;20049;-47
2022/05/11 08:23:52;;;;;;;1.25;0.82;;;;;;;8.38;60.65;102131.59;5014261;28;20033;-47
2022/05/11 08:26:19;;;;;;;1.95;0.85;;;;;;;8.31;61.05;102137.69;5013189;28;20080;-46
2022/05/11 08:28:45;;;;;;;1.25;0.70;;;;;;;8.33;60.92;102133.00;5014426;28;20065;-45
2022/05/11 08:33:56;;;;;;;3.42;0.70;;;;;;;8.30;61.03;102136.84;5007841;28;20048;-46
2022/05/11 08:36:26;;;;;;;2.42;0.70;;;;;;;8.09;62.05;102136.38;5012680;28;20485;-47
2022/05/11 08:38:55;;;;;;;3.33;0.88;;;;;;;7.45;64.26;102138.44;5013783;28;20080;-45
2022/05/11 08:41:57;;;;;;;2.15;0.60;;;;;;;7.07;66.12;102140.44;5012988;28;20118;-45
2022/05/11 08:44:33;;;;;;;3.80;0.75;;;;;;;7.39;64.95;102144.41;4972133;28;20034;-46
2022/05/11 08:47:15;;;;;;;3.72;1.13;;;;;;;7.61;63.84;102135.91;4991432;28;20129;-46
2022/05/11 08:50:10;;;;;;;3.60;0.65;;;;;;;7.59;63.79;102134.38;4994411;28;20030;-48
2022/05/11 08:52:57;;;;;;;1.42;0.70;;;;;;;7.54;64.26;102132.19;4994301;28;20034;-48
2022/05/11 08:55:45;;;;;;;3.75;0.80;;;;;;;7.83;62.96;102131.09;5000823;28;20044;-47
2022/05/11 08:58:21;;;;;;;1.27;0.60;;;;;;;7.78;63.01;102128.06;5014266;28;20219;-45
2022/05/11 09:00:50;;;;;;;4.22;0.77;;;;;;;7.92;62.10;102130.97;5012421;28;20030;-47
2022/05/11 09:03:33;;;;;;;3.17;0.65;;;;;;;8.05;61.69;102125.22;5013762;28;20033;-47
2022/05/11 09:06:03;;;;;;;3.75;1.00;;;;;;;7.81;62.41;102128.56;5012871;28;20127;-47
2022/05/11 09:08:34;;;;;;;3.80;0.75;;;;;;;7.83;62.21;102125.75;5013791;28;20034;-45
2022/05/11 09:11:00;;;;;;;2.28;0.55;;;;;;;7.76;62.69;102124.69;5012685;28;20088;-47
2022/05/11 09:13:27;;;;;;;2.22;0.80;;;;;;;7.69;62.53;102132.47;5013740;28;20536;-46
2022/05/11 09:15:56;;;;;;;5.15;1.20;;;;;;;7.68;62.41;102136.97;5011922;28;20036;-47
2022/05/11 09:18:31;;;;;;;1.25;0.65;;;;;;;7.45;63.62;102130.47;5014539;28;20184;-47
2022/05/11 09:21:02;;;;;;;2.00;0.93;;;;;;;7.66;62.80;102130.97;5012473;28;20117;-45
2022/05/11 09:23:36;;;;;;;3.80;0.80;;;;;;;7.77;62.25;102118.34;5013387;28;20026;-45
2022/05/11 09:26:07;;;;;;;1.98;0.90;;;;;;;7.73;62.15;102117.00;5011635;28;20080;-46
2022/05/11 09:28:36;;;;;;;3.03;0.77;;;;;;;7.79;62.04;102113.72;5013130;28;20049;-44
2022/05/11 09:31:09;;;;;;;2.88;0.68;;;;;;;7.75;62.13;102117.69;5001109;28;20483;-44
2022/05/11 09:33:38;;;;;;;5.53;1.08;;;;;;;7.71;62.50;102113.66;4993229;28;20113;-44
2022/05/11 09:36:07;;;;;;;2.63;0.73;;;;;;;7.94;61.63;102120.16;5008365;28;20030;-48
2022/05/11 09:38:37;;;;;;;1.60;0.70;;;;;;;7.81;61.90;102114.38;5013035;28;20120;-44
2022/05/11 09:41:18;;;;;;;2.13;0.50;;;;;;;7.74;61.94;102118.69;5011643;28;20045;-45
2022/05/11 09:43:55;;;;;;;2.33;0.60;;;;;;;7.66;61.98;102116.78;5011646;28;20076;-47
2022/05/11 09:46:28;;;;;;;2.65;0.70;;;;;;;7.57;62.00;102121.22;5011653;28;20022;-45
2022/05/11 09:49:13;;;;;;;1.75;0.50;;;;;;;7.41;62.45;102121.09;5011965;28;20022;-45
2022/05/11 09:51:43;;;;;;;1.50;0.93;;;;;;;7.51;62.16;102124.50;5011440;28;20364;-46
2022/05/11 09:54:32;;;;;;;1.52;0.63;;;;;;;7.53;62.10;102125.19;5012123;28;20403;-47
2022/05/11 09:57:05;;;;;;;4.07;0.93;;;;;;;7.57;61.83;102126.56;5012514;28;20424;-45
2022/05/11 09:59:37;;;;;;;3.42;1.00;;;;;;;7.42;62.24;102133.41;5011215;28;20117;-47
2022/05/11 10:02:28;;;;;;;1.15;0.90;;;;;;;7.27;63.13;102125.13;5012462;28;20481;-47
2022/05/11 10:05:03;;;;;;;2.42;0.73;;;;;;;7.09;63.90;102127.78;5011956;28;20475;-43
2022/05/11 10:07:37;;;;;;;1.70;0.80;;;;;;;7.01;64.40;102121.56;5012412;28;20034;-45
2022/05/11 10:10:18;;;;;;;2.10;0.55;;;;;;;6.73;65.32;102115.44;5011346;28;20026;-45
2022/05/11 10:12:46;;;;;;;1.30;0.65;;;;;;;7.05;64.24;102121.13;5011838;28;20103;-44
2022/05/11 10:24:34;;;;;;;1.90;0.57;;;;;;;6.88;64.13;102120.13;4994571;28;20057;-47
2022/05/11 10:27:05;;;;;;;1.55;0.65;;;;;;;7.10;63.43;102126.78;5012157;28;20120;-44
2022/05/11 10:29:55;;;;;;;2.55;0.60;;;;;;;7.16;63.47;102120.03;5010888;28;20065;-45
2022/05/11 10:32:40;;;;;;;1.35;0.50;;;;;;;6.72;65.02;102124.41;4994044;28;20076;-45
2022/05/11 10:35:21;;;;;;;1.88;0.80;;;;;;;6.71;64.63;102114.75;5011260;28;20038;-44
2022/05/11 10:38:14;;;;;;;2.03;0.60;;;;;;;6.81;63.88;102116.34;5012115;28;20536;-45
2022/05/11 10:40:49;;;;;;;2.30;0.60;;;;;;;6.88;63.49;102119.25;5007408;28;20045;-45
2022/05/11 10:43:58;;;;;;;2.65;0.60;;;;;;;6.76;64.26;102120.47;5010173;28;20037;-44
2022/05/11 10:46:36;;;;;;;1.50;0.60;;;;;;;6.82;63.80;102109.22;4991539;28;20034;-46
2022/05/11 10:49:23;;;;;;;0.80;0.50;;;;;;;6.74;63.83;102101.16;5009058;28;20033;-46
2022/05/11 10:52:21;;;;;;;2.30;0.70;;;;;;;6.78;63.61;102091.91;5011918;28;20052;-46
2022/05/11 10:55:19;;;;;;;3.97;0.60;;;;;;;6.74;63.81;102091.34;4992722;28;20037;-45
2022/05/11 10:57:57;;;;;;;2.38;0.95;;;;;;;6.80;63.31;102089.91;4995076;28;20084;-45
2022/05/11 11:00:24;;;;;;;0.95;0.43;;;;;;;6.77;63.32;102092.84;5010760;28;20038;-44
2022/05/11 11:03:11;;;;;;;1.05;0.55;;;;;;;6.87;63.29;102090.97;5011848;28;20426;-45
2022/05/11 11:05:40;;;;;;;1.70;0.50;;;;;;;6.65;64.06;102072.78;5011678;28;20030;-45
2022/05/11 11:08:35;;;;;;;1.77;0.60;;;;;;;6.68;63.83;102075.16;5029110;28;20030;-47
2022/05/11 11:11:12;;;;;;;1.50;0.73;;;;;;;6.62;63.82;102079.25;5031288;28;20029;-47
2022/05/11 11:13:47;;;;;;;1.77;0.50;;;;;;;6.61;63.08;102083.72;5031383;28;20116;-44
2022/05/11 11:16:14;;;;;;;6.25;1.05;;;;;;;6.57;63.30;102081.50;5030750;28;20061;-44
2022/05/11 11:18:45;;;;;;;2.58;0.60;;;;;;;6.52;63.45;102087.28;5011624;28;20040;-45
2022/05/11 11:21:13;;;;;;;1.17;0.60;;;;;;;6.60;63.13;102082.03;5011278;28;20026;-46
2022/05/11 11:23:43;;;;;;;2.63;0.68;;;;;;;6.50;63.91;102089.25;5011561;28;20022;-44
2022/05/11 11:26:33;;;;;;;2.08;0.60;;;;;;;6.50;64.53;102089.25;5011300;28;20022;-44
2022/05/11 11:29:00;;;;;;;1.48;0.55;;;;;;;6.58;65.13;102084.00;5011253;28;20463;-44
2022/05/11 11:31:28;;;;;;;3.45;0.85;;;;;;;6.66;64.65;102085.09;4997341;28;20026;-44
2022/05/11 11:34:00;;;;;;;2.17;0.63;;;;;;;6.63;64.45;102088.06;4993722;28;20026;-46
2022/05/11 11:36:34;;;;;;;1.95;0.40;;;;;;;6.66;64.58;102088.59;5013106;28;20029;-46
2022/05/11 11:39:03;;;;;;;1.05;0.75;;;;;;;6.85;64.09;102092.94;4998872;28;20036;-44
2022/05/11 11:41:32;;;;;;;1.15;0.50;;;;;;;6.71;64.33;102090.78;5005494;28;20033;-45
2022/05/11 11:44:02;;;;;;;2.13;0.40;;;;;;;6.71;64.24;102085.47;5011034;28;20550;-44
2022/05/11 11:46:44;;;;;;;1.75;0.50;;;;;;;6.74;64.10;102090.50;5014031;28;20025;-44
2022/05/11 11:49:20;;;;;;;1.52;0.60;;;;;;;6.56;64.74;102083.34;5009711;28;20555;-44
2022/05/11 11:51:59;;;;;;;1.35;0.60;;;;;;;6.72;64.13;102087.13;5011261;28;20080;-44
2022/05/11 11:54:48;;;;;;;1.85;0.80;;;;;;;6.60;64.24;102090.00;5012147;28;20026;-44
2022/05/11 11:57:23;;;;;;;1.17;0.50;;;;;;;6.68;63.68;102089.28;5003914;28;20033;-47
2022/05/11 11:59:53;;;;;;;3.22;0.60;;;;;;;6.56;63.61;102088.66;4994915;28;20057;-44
2022/05/11 12:02:40;;;;;;;0.75;0.57;;;;;;;6.65;63.57;102097.56;4995400;28;20095;-44
2022/05/11 12:05:27;;;;;;;0.85;0.60;;;;;;;6.50;64.01;102093.75;4995130;28;20027;-47
2022/05/11 12:16:25;;;;;;;2.25;0.50;;;;;;;6.42;63.90;102099.78;5013634;28;20165;-44
2022/05/11 12:18:51;;;;;;;1.98;0.70;;;;;;;6.27;64.15;102094.13;5014665;28;20041;-44
2022/05/11 12:21:31;;;;;;;0.98;0.40;;;;;;;6.26;63.93;102096.94;5014812;28;20072;-45
2022/05/11 12:24:01;;;;;;;1.20;0.63;;;;;;;6.34;63.92;102095.22;5014077;28;20033;-45